Lake View Terrace, California
Current Conditions -  °F | °C
As of 9:53 PM on Tuesday 25 Nov 2014 (Local Time) from KBUR Reporting Station
Clear Clear  
Wind Chill: 57°   Ceiling: Unl
Heat Index: 57°   Visibility: 10mi
Dew Point: 22°   Wind: 0mph
Humidity: 26%   Direction: NA
Pressure: 30.29"   Gusts: NA
Location:  34.3277°N, 118.389°W
Report Text: KBUR 260553Z 00000KT 10SM CLR 14/M06 A3029 RMK AO2 SLP247 T01391056 10239 20139 50002
Loading
Personal Weather Stations






























Interactive Weather Map New forecast layout! Learn more

10-Day Weather Forecast

Advertisements
Track Severe Weather on mobile